Terminal Aerodrome Forecast
Issued by NWS Charleston, WV

Current Version | Previous Version | Graphics & Text | Print | Product List | Glossary On
Versions: 1 2 3 4 5 6 7 8 9 10 11 12 13 14 15 16 17 18 19 20 21 22 23 24
000
FTUS41 KRLX 301138
TAFCRW
TAF
KCRW 301138Z 3012/3112 00000KT 4SM BR SCT015
     FM301230 23003KT P6SM SCT250
     FM301600 26004KT P6SM SCT045
     FM301900 31006KT P6SM SCT050
     FM310000 VRB02KT P6SM SCT250
     FM310500 00000KT 5SM BR SCT250
     FM310700 00000KT 2SM BR SCT001
     FM310900 00000KT 1/2SM FG VV001=

USA.gov is the U.S. government's official web portal to all federal, state and local government web resources and services.